| Time | Avg. Air Temp | Dew Point | Avg. Rel Humidity | Avg. 2 Min Wind Speed | Max Gust Velocity | MGV Time | MGV Direction | Avg. Spot Wind Velocity |
|---|---|---|---|---|---|---|---|---|
| 2026-05-07 06:10:00 | 1° C | 1° C | 100% | 18 km/h | 23 km/h | 06:07:00 | NW | 18 km/h |
| 05:10:00 | 2° C | 2° C | 100% | 19 km/h | 22 km/h | 05:10:00 | W | 17 km/h |
| 04:10:00 | 2° C | 2° C | 100% | 18 km/h | 24 km/h | 04:09:00 | W | 17 km/h |
| 03:10:00 | 2° C | 2° C | 100% | 23 km/h | 28 km/h | 03:10:00 | W | 21 km/h |
| 02:10:00 | 3° C | 2° C | 97% | 22 km/h | 31 km/h | 02:08:00 | W | 21 km/h |
| 01:10:00 | 3° C | 1° C | 86% | 24 km/h | 27 km/h | 01:10:00 | W | 20 km/h |
| 00:10:00 | 4° C | 1° C | 80% | 23 km/h | 25 km/h | 00:10:00 | W | 22 km/h |
| 23:10:00 | 4° C | 0° C | 77% | 24 km/h | 29 km/h | 23:06:00 | W | 24 km/h |
| 22:10:00 | 4° C | 1° C | 76% | 16 km/h | 21 km/h | 22:06:00 | W | 17 km/h |
| 21:10:00 | 4° C | 1° C | 81% | 14 km/h | 17 km/h | 21:09:00 | SW | 15 km/h |
| 20:10:00 | 3° C | 3° C | 90% | 19 km/h | 27 km/h | 20:09:00 | NE | 13 km/h |
| 19:10:00 | 7° C | -0° C | 58% | 12 km/h | 17 km/h | 19:09:00 | SW | 11 km/h |
| 18:10:00 | 8° C | -1° C | 52% | 3 km/h | 10 km/h | 18:08:00 | NW | 4 km/h |
| 17:10:00 | 8° C | -1° C | 55% | 20 km/h | 26 km/h | 17:09:00 | W | 14 km/h |
| 16:10:00 | 7° C | -0° C | 59% | 19 km/h | 22 km/h | 16:10:00 | W | 17 km/h |
| 15:10:00 | 8° C | -1° C | 56% | 16 km/h | 20 km/h | 15:09:00 | W | 15 km/h |
| 14:10:00 | 6° C | -0° C | 62% | 14 km/h | 21 km/h | 14:06:00 | SW | 15 km/h |
| 13:10:00 | 6° C | -1° C | 62% | 12 km/h | 15 km/h | 13:07:00 | SW | 12 km/h |
| 12:10:00 | 6° C | -2° C | 57% | 13 km/h | 17 km/h | 12:10:00 | SW | 12 km/h |
| 11:10:00 | 6° C | -3° C | 52% | 10 km/h | 12 km/h | 11:09:00 | SW | 10 km/h |
| 10:10:00 | 5° C | -4° C | 50% | 7 km/h | 10 km/h | 10:07:00 | S | 8 km/h |
| 09:10:00 | 5° C | -5° C | 49% | 9 km/h | 10 km/h | 09:06:00 | S | 8 km/h |
| 08:10:00 | 5° C | -3° C | 54% | 16 km/h | 20 km/h | 08:06:00 | W | 17 km/h |
| 07:10:00 | 5° C | -5° C | 48% | 18 km/h | 25 km/h | 07:07:00 | W | 20 km/h |
Subpeak Weather
| Time | Avg. Air Temp | Dew Point | Avg. Rel Humidity | Avg. 2 Min Wind Speed | Max Gust Velocity | MGV Time | MGV Direction | Avg. Spot Wind Velocity |
|---|---|---|---|---|---|---|---|---|
| 2026-05-07 06:10:00 | 1° C | 1° C | 100% | 18 km/h | 23 km/h | 06:07:00 | NW | 18 km/h |
| 06:05:00 | 1° C | 1° C | 100% | 20 km/h | 26 km/h | 06:05:00 | NW | 19 km/h |
| 06:00:00 | 1° C | 1° C | 100% | 18 km/h | 24 km/h | 06:00:00 | NW | 17 km/h |
| 05:55:00 | 1° C | 1° C | 100% | 17 km/h | 23 km/h | 05:51:00 | NW | 16 km/h |
| 05:50:00 | 1° C | 1° C | 100% | 17 km/h | 22 km/h | 05:48:00 | NW | 15 km/h |
| 05:45:00 | 1° C | 1° C | 100% | 17 km/h | 20 km/h | 05:45:00 | W | 14 km/h |
| 05:40:00 | 1° C | 1° C | 100% | 10 km/h | 14 km/h | 05:38:00 | NW | 11 km/h |
| 05:35:00 | 1° C | 1° C | 100% | 14 km/h | 18 km/h | 05:33:00 | W | 14 km/h |
| 05:30:00 | 1° C | 1° C | 100% | 14 km/h | 18 km/h | 05:30:00 | W | 13 km/h |
| 05:25:00 | 2° C | 1° C | 100% | 13 km/h | 16 km/h | 05:24:00 | W | 13 km/h |
| 05:20:00 | 2° C | 2° C | 100% | 11 km/h | 22 km/h | 05:16:00 | W | 14 km/h |
| 05:15:00 | 2° C | 1° C | 100% | 19 km/h | 22 km/h | 05:13:00 | W | 19 km/h |
| 05:10:00 | 2° C | 2° C | 100% | 19 km/h | 22 km/h | 05:10:00 | W | 17 km/h |




